sensor_id;sensor_type;location;lat;lon;timestamp;P1;durP1;ratioP1;P2;durP2;ratioP2
65924;SDS011;66010;52.084;5.412;2023-09-19T00:02:19;7.93;;;1.60;;
65924;SDS011;66010;52.084;5.412;2023-09-19T00:04:54;5.65;;;1.40;;
65924;SDS011;66010;52.084;5.412;2023-09-19T00:07:40;5.10;;;1.35;;
65924;SDS011;66010;52.084;5.412;2023-09-19T00:10:21;5.65;;;1.40;;
65924;SDS011;66010;52.084;5.412;2023-09-19T00:13:40;5.95;;;1.40;;
65924;SDS011;66010;52.084;5.412;2023-09-19T00:16:24;5.97;;;1.50;;
65924;SDS011;66010;52.084;5.412;2023-09-19T00:19:19;4.70;;;1.52;;
65924;SDS011;66010;52.084;5.412;2023-09-19T00:21:51;6.10;;;1.33;;
65924;SDS011;66010;52.084;5.412;2023-09-19T00:24:24;6.13;;;1.58;;
65924;SDS011;66010;52.084;5.412;2023-09-19T00:26:59;5.43;;;1.40;;
65924;SDS011;66010;52.084;5.412;2023-09-19T00:29:32;4.15;;;1.30;;
65924;SDS011;66010;52.084;5.412;2023-09-19T00:32:15;6.07;;;1.52;;
65924;SDS011;66010;52.084;5.412;2023-09-19T00:35:13;4.47;;;1.20;;
65924;SDS011;66010;52.084;5.412;2023-09-19T00:38:06;7.00;;;1.40;;
65924;SDS011;66010;52.084;5.412;2023-09-19T00:41:00;4.53;;;1.15;;
65924;SDS011;66010;52.084;5.412;2023-09-19T00:43:53;4.88;;;1.30;;
65924;SDS011;66010;52.084;5.412;2023-09-19T00:46:35;6.28;;;1.80;;
65924;SDS011;66010;52.084;5.412;2023-09-19T00:49:19;4.80;;;1.52;;
65924;SDS011;66010;52.084;5.412;2023-09-19T00:52:10;5.43;;;1.30;;
65924;SDS011;66010;52.084;5.412;2023-09-19T00:54:58;4.57;;;1.40;;
65924;SDS011;66010;52.084;5.412;2023-09-19T00:57:51;5.57;;;1.40;;
65924;SDS011;66010;52.084;5.412;2023-09-19T01:00:53;4.45;;;1.15;;
65924;SDS011;66010;52.084;5.412;2023-09-19T01:04:01;5.95;;;1.30;;
65924;SDS011;66010;52.084;5.412;2023-09-19T01:06:45;4.78;;;1.35;;
65924;SDS011;66010;52.084;5.412;2023-09-19T01:09:34;6.47;;;1.55;;
65924;SDS011;66010;52.084;5.412;2023-09-19T01:12:54;5.13;;;1.30;;
65924;SDS011;66010;52.084;5.412;2023-09-19T01:26:04;4.80;;;1.70;;
65924;SDS011;66010;52.084;5.412;2023-09-19T01:36:42;7.30;;;1.40;;
65924;SDS011;66010;52.084;5.412;2023-09-19T01:39:36;7.22;;;1.40;;
65924;SDS011;66010;52.084;5.412;2023-09-19T01:42:13;6.72;;;1.60;;
65924;SDS011;66010;52.084;5.412;2023-09-19T01:44:51;6.70;;;1.80;;
65924;SDS011;66010;52.084;5.412;2023-09-19T01:47:27;8.80;;;2.05;;
65924;SDS011;66010;52.084;5.412;2023-09-19T01:49:58;7.03;;;1.95;;
65924;SDS011;66010;52.084;5.412;2023-09-19T01:54:57;11.15;;;2.22;;
65924;SDS011;66010;52.084;5.412;2023-09-19T01:57:35;9.13;;;1.90;;
65924;SDS011;66010;52.084;5.412;2023-09-19T02:00:06;7.05;;;1.80;;
65924;SDS011;66010;52.084;5.412;2023-09-19T02:02:42;6.82;;;1.85;;
65924;SDS011;66010;52.084;5.412;2023-09-19T02:05:13;8.77;;;1.77;;
65924;SDS011;66010;52.084;5.412;2023-09-19T02:07:53;9.10;;;2.17;;
65924;SDS011;66010;52.084;5.412;2023-09-19T02:10:27;9.05;;;1.92;;
65924;SDS011;66010;52.084;5.412;2023-09-19T02:15:32;7.50;;;1.70;;
65924;SDS011;66010;52.084;5.412;2023-09-19T02:18:09;8.60;;;2.00;;
65924;SDS011;66010;52.084;5.412;2023-09-19T02:20:39;7.57;;;1.90;;
65924;SDS011;66010;52.084;5.412;2023-09-19T02:23:22;11.52;;;2.08;;
65924;SDS011;66010;52.084;5.412;2023-09-19T02:26:06;10.02;;;2.10;;
65924;SDS011;66010;52.084;5.412;2023-09-19T02:28:53;8.20;;;2.40;;
65924;SDS011;66010;52.084;5.412;2023-09-19T02:31:35;8.98;;;1.90;;
65924;SDS011;66010;52.084;5.412;2023-09-19T02:34:17;6.88;;;2.00;;
65924;SDS011;66010;52.084;5.412;2023-09-19T02:37:06;9.73;;;2.20;;
65924;SDS011;66010;52.084;5.412;2023-09-19T02:39:47;10.07;;;2.08;;
65924;SDS011;66010;52.084;5.412;2023-09-19T02:42:15;11.73;;;2.20;;
65924;SDS011;66010;52.084;5.412;2023-09-19T02:47:19;9.10;;;2.03;;
65924;SDS011;66010;52.084;5.412;2023-09-19T02:49:49;9.07;;;1.88;;
65924;SDS011;66010;52.084;5.412;2023-09-19T02:52:20;11.35;;;2.13;;
65924;SDS011;66010;52.084;5.412;2023-09-19T02:54:59;8.77;;;2.05;;
65924;SDS011;66010;52.084;5.412;2023-09-19T02:57:30;9.00;;;2.17;;
65924;SDS011;66010;52.084;5.412;2023-09-19T03:00:11;11.10;;;2.35;;
65924;SDS011;66010;52.084;5.412;2023-09-19T03:02:45;8.90;;;2.08;;
65924;SDS011;66010;52.084;5.412;2023-09-19T03:05:24;9.40;;;2.05;;
65924;SDS011;66010;52.084;5.412;2023-09-19T03:07:56;9.27;;;2.10;;
65924;SDS011;66010;52.084;5.412;2023-09-19T03:10:26;10.88;;;2.08;;
65924;SDS011;66010;52.084;5.412;2023-09-19T03:13:10;9.60;;;2.20;;
65924;SDS011;66010;52.084;5.412;2023-09-19T03:15:45;8.65;;;2.13;;
65924;SDS011;66010;52.084;5.412;2023-09-19T03:23:44;7.43;;;1.80;;
65924;SDS011;66010;52.084;5.412;2023-09-19T03:26:21;10.35;;;1.98;;
65924;SDS011;66010;52.084;5.412;2023-09-19T03:28:56;9.07;;;1.65;;
65924;SDS011;66010;52.084;5.412;2023-09-19T03:31:25;10.52;;;1.95;;
65924;SDS011;66010;52.084;5.412;2023-09-19T03:34:11;8.60;;;1.95;;
65924;SDS011;66010;52.084;5.412;2023-09-19T03:36:48;9.32;;;1.85;;
65924;SDS011;66010;52.084;5.412;2023-09-19T03:39:33;9.75;;;1.75;;
65924;SDS011;66010;52.084;5.412;2023-09-19T03:42:16;9.95;;;1.90;;
65924;SDS011;66010;52.084;5.412;2023-09-19T03:44:54;9.07;;;1.92;;
65924;SDS011;66010;52.084;5.412;2023-09-19T03:47:43;12.52;;;2.10;;
65924;SDS011;66010;52.084;5.412;2023-09-19T03:50:20;9.00;;;1.83;;
65924;SDS011;66010;52.084;5.412;2023-09-19T03:52:48;7.63;;;2.00;;
65924;SDS011;66010;52.084;5.412;2023-09-19T03:55:16;8.68;;;2.08;;
65924;SDS011;66010;52.084;5.412;2023-09-19T03:57:47;10.40;;;1.95;;
65924;SDS011;66010;52.084;5.412;2023-09-19T04:00:20;8.48;;;1.75;;
65924;SDS011;66010;52.084;5.412;2023-09-19T04:02:55;10.55;;;1.70;;
65924;SDS011;66010;52.084;5.412;2023-09-19T04:05:39;11.00;;;1.77;;
65924;SDS011;66010;52.084;5.412;2023-09-19T04:08:07;8.70;;;2.00;;
65924;SDS011;66010;52.084;5.412;2023-09-19T04:10:40;8.45;;;1.80;;
65924;SDS011;66010;52.084;5.412;2023-09-19T04:13:14;10.43;;;2.00;;
65924;SDS011;66010;52.084;5.412;2023-09-19T04:15:45;8.35;;;2.00;;
65924;SDS011;66010;52.084;5.412;2023-09-19T04:18:14;9.25;;;2.00;;
65924;SDS011;66010;52.084;5.412;2023-09-19T04:20:58;7.00;;;1.52;;
65924;SDS011;66010;52.084;5.412;2023-09-19T04:23:32;11.32;;;2.55;;
65924;SDS011;66010;52.084;5.412;2023-09-19T04:26:19;10.77;;;1.92;;
65924;SDS011;66010;52.084;5.412;2023-09-19T04:29:00;9.48;;;1.85;;
65924;SDS011;66010;52.084;5.412;2023-09-19T04:31:47;8.55;;;2.22;;
65924;SDS011;66010;52.084;5.412;2023-09-19T04:34:20;11.32;;;1.90;;
65924;SDS011;66010;52.084;5.412;2023-09-19T04:37:02;7.72;;;1.83;;
65924;SDS011;66010;52.084;5.412;2023-09-19T04:39:34;10.18;;;2.10;;
65924;SDS011;66010;52.084;5.412;2023-09-19T04:42:12;11.02;;;2.33;;
65924;SDS011;66010;52.084;5.412;2023-09-19T04:44:42;8.77;;;1.92;;
65924;SDS011;66010;52.084;5.412;2023-09-19T04:47:17;10.50;;;1.95;;
65924;SDS011;66010;52.084;5.412;2023-09-19T04:49:54;7.85;;;1.77;;
65924;SDS011;66010;52.084;5.412;2023-09-19T04:52:30;8.32;;;1.60;;
65924;SDS011;66010;52.084;5.412;2023-09-19T04:55:18;10.95;;;1.90;;
65924;SDS011;66010;52.084;5.412;2023-09-19T04:57:53;7.93;;;1.88;;
65924;SDS011;66010;52.084;5.412;2023-09-19T05:00:23;11.30;;;2.00;;
65924;SDS011;66010;52.084;5.412;2023-09-19T05:02:55;9.80;;;2.17;;
65924;SDS011;66010;52.084;5.412;2023-09-19T05:05:27;8.20;;;2.10;;
65924;SDS011;66010;52.084;5.412;2023-09-19T05:08:01;8.02;;;2.03;;
65924;SDS011;66010;52.084;5.412;2023-09-19T05:10:36;9.68;;;1.80;;
65924;SDS011;66010;52.084;5.412;2023-09-19T05:13:09;10.07;;;2.17;;
65924;SDS011;66010;52.084;5.412;2023-09-19T05:15:39;9.90;;;2.10;;
65924;SDS011;66010;52.084;5.412;2023-09-19T05:18:10;8.50;;;1.80;;
65924;SDS011;66010;52.084;5.412;2023-09-19T05:20:37;8.82;;;2.00;;
65924;SDS011;66010;52.084;5.412;2023-09-19T05:23:06;11.32;;;2.30;;
65924;SDS011;66010;52.084;5.412;2023-09-19T05:25:40;11.10;;;2.30;;
65924;SDS011;66010;52.084;5.412;2023-09-19T05:28:24;8.15;;;2.28;;
65924;SDS011;66010;52.084;5.412;2023-09-19T05:30:55;9.07;;;2.08;;
65924;SDS011;66010;52.084;5.412;2023-09-19T05:33:27;8.82;;;2.13;;
65924;SDS011;66010;52.084;5.412;2023-09-19T05:36:01;7.65;;;1.70;;
65924;SDS011;66010;52.084;5.412;2023-09-19T05:38:30;6.15;;;1.70;;
65924;SDS011;66010;52.084;5.412;2023-09-19T05:41:06;9.23;;;1.98;;
65924;SDS011;66010;52.084;5.412;2023-09-19T05:43:42;10.00;;;1.98;;
65924;SDS011;66010;52.084;5.412;2023-09-19T05:46:15;8.68;;;2.30;;
65924;SDS011;66010;52.084;5.412;2023-09-19T05:48:53;8.95;;;2.17;;
65924;SDS011;66010;52.084;5.412;2023-09-19T05:51:28;9.65;;;2.30;;
65924;SDS011;66010;52.084;5.412;2023-09-19T05:54:04;11.27;;;2.40;;
65924;SDS011;66010;52.084;5.412;2023-09-19T05:56:35;8.27;;;1.95;;
65924;SDS011;66010;52.084;5.412;2023-09-19T05:59:08;8.95;;;2.00;;
65924;SDS011;66010;52.084;5.412;2023-09-19T06:01:43;10.00;;;2.10;;
65924;SDS011;66010;52.084;5.412;2023-09-19T06:04:19;11.63;;;2.35;;
65924;SDS011;66010;52.084;5.412;2023-09-19T06:06:56;11.45;;;2.28;;
65924;SDS011;66010;52.084;5.412;2023-09-19T06:09:36;12.07;;;2.30;;
65924;SDS011;66010;52.084;5.412;2023-09-19T06:12:12;9.80;;;2.20;;
65924;SDS011;66010;52.084;5.412;2023-09-19T06:14:58;10.20;;;2.30;;
65924;SDS011;66010;52.084;5.412;2023-09-19T06:17:57;8.93;;;2.00;;
65924;SDS011;66010;52.084;5.412;2023-09-19T06:20:41;11.82;;;1.98;;
65924;SDS011;66010;52.084;5.412;2023-09-19T06:23:25;8.23;;;1.95;;
65924;SDS011;66010;52.084;5.412;2023-09-19T06:28:46;9.25;;;2.05;;
65924;SDS011;66010;52.084;5.412;2023-09-19T06:31:21;7.88;;;1.98;;
65924;SDS011;66010;52.084;5.412;2023-09-19T06:33:53;8.65;;;2.20;;
65924;SDS011;66010;52.084;5.412;2023-09-19T06:36:20;8.93;;;1.83;;
65924;SDS011;66010;52.084;5.412;2023-09-19T06:38:49;8.50;;;1.95;;
65924;SDS011;66010;52.084;5.412;2023-09-19T06:41:18;10.55;;;2.30;;
65924;SDS011;66010;52.084;5.412;2023-09-19T06:43:45;9.00;;;1.95;;
65924;SDS011;66010;52.084;5.412;2023-09-19T06:46:12;8.77;;;1.80;;
65924;SDS011;66010;52.084;5.412;2023-09-19T06:48:43;10.23;;;2.13;;
65924;SDS011;66010;52.084;5.412;2023-09-19T06:51:11;8.90;;;2.10;;
65924;SDS011;66010;52.084;5.412;2023-09-19T06:53:38;10.30;;;2.00;;
65924;SDS011;66010;52.084;5.412;2023-09-19T06:56:10;10.20;;;2.10;;
65924;SDS011;66010;52.084;5.412;2023-09-19T06:58:46;8.32;;;1.55;;
65924;SDS011;66010;52.084;5.412;2023-09-19T07:01:13;10.25;;;1.95;;
65924;SDS011;66010;52.084;5.412;2023-09-19T07:03:43;10.00;;;2.25;;
65924;SDS011;66010;52.084;5.412;2023-09-19T07:06:12;12.13;;;2.45;;
65924;SDS011;66010;52.084;5.412;2023-09-19T07:08:40;13.00;;;2.72;;
65924;SDS011;66010;52.084;5.412;2023-09-19T07:11:07;14.25;;;2.75;;
65924;SDS011;66010;52.084;5.412;2023-09-19T07:13:35;11.23;;;2.20;;
65924;SDS011;66010;52.084;5.412;2023-09-19T07:16:06;10.70;;;2.70;;
65924;SDS011;66010;52.084;5.412;2023-09-19T07:18:36;10.45;;;2.33;;
65924;SDS011;66010;52.084;5.412;2023-09-19T07:21:03;10.25;;;2.30;;
65924;SDS011;66010;52.084;5.412;2023-09-19T07:23:33;10.48;;;2.08;;
65924;SDS011;66010;52.084;5.412;2023-09-19T07:26:01;10.10;;;2.35;;
65924;SDS011;66010;52.084;5.412;2023-09-19T07:28:32;9.88;;;2.22;;
65924;SDS011;66010;52.084;5.412;2023-09-19T07:31:01;11.57;;;2.40;;
65924;SDS011;66010;52.084;5.412;2023-09-19T07:33:29;12.18;;;2.58;;
65924;SDS011;66010;52.084;5.412;2023-09-19T07:35:56;13.18;;;2.38;;
65924;SDS011;66010;52.084;5.412;2023-09-19T07:38:30;13.23;;;2.30;;
65924;SDS011;66010;52.084;5.412;2023-09-19T07:41:01;9.80;;;2.38;;
65924;SDS011;66010;52.084;5.412;2023-09-19T07:43:29;12.95;;;2.55;;
65924;SDS011;66010;52.084;5.412;2023-09-19T07:45:57;12.32;;;2.33;;
65924;SDS011;66010;52.084;5.412;2023-09-19T07:48:27;10.45;;;2.25;;
65924;SDS011;66010;52.084;5.412;2023-09-19T07:50:54;12.30;;;2.60;;
65924;SDS011;66010;52.084;5.412;2023-09-19T07:53:21;11.23;;;2.42;;
65924;SDS011;66010;52.084;5.412;2023-09-19T07:55:49;11.90;;;2.35;;
65924;SDS011;66010;52.084;5.412;2023-09-19T07:58:16;13.52;;;2.40;;
65924;SDS011;66010;52.084;5.412;2023-09-19T08:00:43;9.52;;;2.10;;
65924;SDS011;66010;52.084;5.412;2023-09-19T08:03:10;11.55;;;2.22;;
65924;SDS011;66010;52.084;5.412;2023-09-19T08:05:43;14.40;;;2.35;;
65924;SDS011;66010;52.084;5.412;2023-09-19T08:10:40;12.50;;;2.58;;
65924;SDS011;66010;52.084;5.412;2023-09-19T08:13:10;13.23;;;2.35;;
65924;SDS011;66010;52.084;5.412;2023-09-19T08:15:44;12.68;;;2.40;;
65924;SDS011;66010;52.084;5.412;2023-09-19T08:18:11;11.35;;;2.35;;
65924;SDS011;66010;52.084;5.412;2023-09-19T08:20:38;13.38;;;2.28;;
65924;SDS011;66010;52.084;5.412;2023-09-19T08:23:06;12.70;;;2.50;;
65924;SDS011;66010;52.084;5.412;2023-09-19T08:25:40;13.65;;;2.50;;
65924;SDS011;66010;52.084;5.412;2023-09-19T08:28:13;14.60;;;2.45;;
65924;SDS011;66010;52.084;5.412;2023-09-19T08:30:48;10.07;;;2.28;;
65924;SDS011;66010;52.084;5.412;2023-09-19T08:33:16;13.05;;;2.40;;
65924;SDS011;66010;52.084;5.412;2023-09-19T08:35:46;12.32;;;2.45;;
65924;SDS011;66010;52.084;5.412;2023-09-19T08:38:20;11.25;;;2.55;;
65924;SDS011;66010;52.084;5.412;2023-09-19T08:40:53;11.77;;;2.45;;
65924;SDS011;66010;52.084;5.412;2023-09-19T08:43:24;14.32;;;2.75;;
65924;SDS011;66010;52.084;5.412;2023-09-19T08:45:54;12.75;;;2.60;;
65924;SDS011;66010;52.084;5.412;2023-09-19T08:51:00;14.25;;;2.63;;
65924;SDS011;66010;52.084;5.412;2023-09-19T08:56:23;14.25;;;2.65;;
65924;SDS011;66010;52.084;5.412;2023-09-19T09:01:30;10.43;;;2.50;;
65924;SDS011;66010;52.084;5.412;2023-09-19T09:04:00;16.65;;;3.13;;
65924;SDS011;66010;52.084;5.412;2023-09-19T09:06:27;13.45;;;2.70;;
65924;SDS011;66010;52.084;5.412;2023-09-19T09:09:27;12.25;;;1.83;;
65924;SDS011;66010;52.084;5.412;2023-09-19T09:12:11;11.57;;;2.20;;
65924;SDS011;66010;52.084;5.412;2023-09-19T09:14:46;12.23;;;2.10;;
65924;SDS011;66010;52.084;5.412;2023-09-19T09:17:16;10.98;;;2.22;;
65924;SDS011;66010;52.084;5.412;2023-09-19T09:19:47;10.43;;;2.22;;
65924;SDS011;66010;52.084;5.412;2023-09-19T09:22:18;11.50;;;2.00;;
65924;SDS011;66010;52.084;5.412;2023-09-19T09:24:54;12.60;;;2.17;;
65924;SDS011;66010;52.084;5.412;2023-09-19T09:27:24;11.38;;;2.17;;
65924;SDS011;66010;52.084;5.412;2023-09-19T09:29:52;8.43;;;1.85;;
65924;SDS011;66010;52.084;5.412;2023-09-19T09:34:49;14.05;;;2.70;;
65924;SDS011;66010;52.084;5.412;2023-09-19T09:37:17;10.30;;;2.30;;
65924;SDS011;66010;52.084;5.412;2023-09-19T09:39:49;11.50;;;2.40;;
65924;SDS011;66010;52.084;5.412;2023-09-19T09:42:28;14.23;;;2.28;;
65924;SDS011;66010;52.084;5.412;2023-09-19T09:47:45;10.10;;;2.00;;
65924;SDS011;66010;52.084;5.412;2023-09-19T09:52:56;9.93;;;2.08;;
65924;SDS011;66010;52.084;5.412;2023-09-19T09:58:22;10.85;;;2.10;;
65924;SDS011;66010;52.084;5.412;2023-09-19T10:00:52;11.10;;;2.20;;
65924;SDS011;66010;52.084;5.412;2023-09-19T10:03:33;10.48;;;1.98;;
65924;SDS011;66010;52.084;5.412;2023-09-19T10:06:02;10.45;;;1.90;;
65924;SDS011;66010;52.084;5.412;2023-09-19T10:08:37;9.05;;;1.73;;
65924;SDS011;66010;52.084;5.412;2023-09-19T10:13:38;11.63;;;2.13;;
65924;SDS011;66010;52.084;5.412;2023-09-19T10:16:10;9.57;;;1.80;;
65924;SDS011;66010;52.084;5.412;2023-09-19T10:18:38;13.98;;;2.25;;
65924;SDS011;66010;52.084;5.412;2023-09-19T10:21:06;12.27;;;2.28;;
65924;SDS011;66010;52.084;5.412;2023-09-19T10:23:35;11.43;;;2.15;;
65924;SDS011;66010;52.084;5.412;2023-09-19T10:26:03;11.43;;;2.15;;
65924;SDS011;66010;52.084;5.412;2023-09-19T10:28:31;11.63;;;2.10;;
65924;SDS011;66010;52.084;5.412;2023-09-19T10:30:59;11.00;;;2.25;;
65924;SDS011;66010;52.084;5.412;2023-09-19T10:33:26;8.63;;;2.03;;
65924;SDS011;66010;52.084;5.412;2023-09-19T10:35:58;9.00;;;1.90;;
65924;SDS011;66010;52.084;5.412;2023-09-19T10:38:26;9.85;;;2.25;;
65924;SDS011;66010;52.084;5.412;2023-09-19T10:40:55;8.40;;;2.30;;
65924;SDS011;66010;52.084;5.412;2023-09-19T10:43:25;9.90;;;2.03;;
65924;SDS011;66010;52.084;5.412;2023-09-19T10:45:52;8.40;;;1.90;;
65924;SDS011;66010;52.084;5.412;2023-09-19T10:48:20;9.55;;;2.05;;
65924;SDS011;66010;52.084;5.412;2023-09-19T10:53:21;9.30;;;2.00;;
65924;SDS011;66010;52.084;5.412;2023-09-19T10:55:49;8.65;;;1.90;;
65924;SDS011;66010;52.084;5.412;2023-09-19T10:58:36;9.23;;;2.05;;
65924;SDS011;66010;52.084;5.412;2023-09-19T11:01:06;9.05;;;2.00;;
65924;SDS011;66010;52.084;5.412;2023-09-19T11:03:39;8.10;;;1.90;;
65924;SDS011;66010;52.084;5.412;2023-09-19T11:06:16;9.98;;;2.10;;
65924;SDS011;66010;52.084;5.412;2023-09-19T11:08:54;9.77;;;2.15;;
65924;SDS011;66010;52.084;5.412;2023-09-19T11:11:43;9.63;;;2.00;;
65924;SDS011;66010;52.084;5.412;2023-09-19T11:14:17;10.35;;;2.67;;
65924;SDS011;66010;52.084;5.412;2023-09-19T11:22:23;6.30;;;1.83;;
65924;SDS011;66010;52.084;5.412;2023-09-19T11:24:53;7.93;;;1.92;;
65924;SDS011;66010;52.084;5.412;2023-09-19T11:27:22;11.50;;;2.25;;
65924;SDS011;66010;52.084;5.412;2023-09-19T11:30:25;9.48;;;1.83;;
65924;SDS011;66010;52.084;5.412;2023-09-19T11:35:58;8.25;;;2.10;;
65924;SDS011;66010;52.084;5.412;2023-09-19T11:38:16;9.05;;;2.10;;
65924;SDS011;66010;52.084;5.412;2023-09-19T11:40:44;9.35;;;1.77;;
65924;SDS011;66010;52.084;5.412;2023-09-19T11:43:27;8.10;;;1.90;;
65924;SDS011;66010;52.084;5.412;2023-09-19T11:48:25;6.57;;;1.60;;
65924;SDS011;66010;52.084;5.412;2023-09-19T11:50:53;8.98;;;1.88;;
65924;SDS011;66010;52.084;5.412;2023-09-19T11:53:21;6.70;;;1.50;;
65924;SDS011;66010;52.084;5.412;2023-09-19T11:55:49;9.93;;;1.73;;
65924;SDS011;66010;52.084;5.412;2023-09-19T11:58:17;8.30;;;1.52;;
65924;SDS011;66010;52.084;5.412;2023-09-19T12:00:45;6.65;;;1.58;;
65924;SDS011;66010;52.084;5.412;2023-09-19T12:03:12;5.13;;;1.40;;
65924;SDS011;66010;52.084;5.412;2023-09-19T12:05:45;8.32;;;1.73;;
65924;SDS011;66010;52.084;5.412;2023-09-19T12:08:14;6.47;;;1.55;;
65924;SDS011;66010;52.084;5.412;2023-09-19T12:10:46;5.95;;;1.30;;
65924;SDS011;66010;52.084;5.412;2023-09-19T12:13:17;7.57;;;1.55;;
65924;SDS011;66010;52.084;5.412;2023-09-19T12:15:45;5.63;;;1.40;;
65924;SDS011;66010;52.084;5.412;2023-09-19T12:18:32;7.65;;;1.40;;
65924;SDS011;66010;52.084;5.412;2023-09-19T12:21:02;6.88;;;1.40;;
65924;SDS011;66010;52.084;5.412;2023-09-19T12:23:31;3.75;;;1.17;;
65924;SDS011;66010;52.084;5.412;2023-09-19T12:26:01;6.18;;;1.45;;
65924;SDS011;66010;52.084;5.412;2023-09-19T12:28:41;5.45;;;1.20;;
65924;SDS011;66010;52.084;5.412;2023-09-19T12:31:08;6.20;;;1.50;;
65924;SDS011;66010;52.084;5.412;2023-09-19T12:33:35;7.20;;;1.30;;
65924;SDS011;66010;52.084;5.412;2023-09-19T12:36:19;6.30;;;1.38;;
65924;SDS011;66010;52.084;5.412;2023-09-19T12:38:52;5.22;;;1.20;;
65924;SDS011;66010;52.084;5.412;2023-09-19T12:43:48;6.00;;;1.25;;
65924;SDS011;66010;52.084;5.412;2023-09-19T12:48:48;6.38;;;1.10;;
65924;SDS011;66010;52.084;5.412;2023-09-19T12:51:23;5.25;;;1.63;;
65924;SDS011;66010;52.084;5.412;2023-09-19T12:53:57;7.18;;;1.50;;
65924;SDS011;66010;52.084;5.412;2023-09-19T12:56:23;5.05;;;1.50;;
65924;SDS011;66010;52.084;5.412;2023-09-19T13:01:17;3.67;;;1.20;;
65924;SDS011;66010;52.084;5.412;2023-09-19T13:03:45;7.03;;;1.27;;
65924;SDS011;66010;52.084;5.412;2023-09-19T13:06:12;4.53;;;1.30;;
65924;SDS011;66010;52.084;5.412;2023-09-19T13:08:40;5.65;;;1.67;;
65924;SDS011;66010;52.084;5.412;2023-09-19T13:11:17;7.13;;;1.23;;
65924;SDS011;66010;52.084;5.412;2023-09-19T13:13:48;4.38;;;1.27;;
65924;SDS011;66010;52.084;5.412;2023-09-19T13:16:20;5.03;;;1.20;;
65924;SDS011;66010;52.084;5.412;2023-09-19T13:18:52;4.43;;;1.30;;
65924;SDS011;66010;52.084;5.412;2023-09-19T13:21:30;4.55;;;1.45;;
65924;SDS011;66010;52.084;5.412;2023-09-19T13:26:45;6.30;;;1.40;;
65924;SDS011;66010;52.084;5.412;2023-09-19T13:29:12;6.22;;;1.30;;
65924;SDS011;66010;52.084;5.412;2023-09-19T13:31:40;6.03;;;1.40;;
65924;SDS011;66010;52.084;5.412;2023-09-19T13:34:08;4.32;;;1.38;;
65924;SDS011;66010;52.084;5.412;2023-09-19T13:36:34;4.97;;;1.35;;
65924;SDS011;66010;52.084;5.412;2023-09-19T13:39:01;4.57;;;1.30;;
65924;SDS011;66010;52.084;5.412;2023-09-19T13:41:28;5.22;;;1.35;;
65924;SDS011;66010;52.084;5.412;2023-09-19T13:43:55;6.05;;;1.35;;
65924;SDS011;66010;52.084;5.412;2023-09-19T13:46:23;4.28;;;1.13;;
65924;SDS011;66010;52.084;5.412;2023-09-19T13:48:53;5.13;;;1.20;;
65924;SDS011;66010;52.084;5.412;2023-09-19T13:51:22;6.13;;;1.05;;
65924;SDS011;66010;52.084;5.412;2023-09-19T13:53:49;3.85;;;1.10;;
65924;SDS011;66010;52.084;5.412;2023-09-19T13:56:17;3.92;;;1.20;;
65924;SDS011;66010;52.084;5.412;2023-09-19T13:58:43;6.18;;;1.42;;
65924;SDS011;66010;52.084;5.412;2023-09-19T14:01:10;2.83;;;1.00;;
65924;SDS011;66010;52.084;5.412;2023-09-19T14:03:39;7.78;;;1.67;;
65924;SDS011;66010;52.084;5.412;2023-09-19T14:06:07;7.22;;;1.30;;
65924;SDS011;66010;52.084;5.412;2023-09-19T14:08:33;5.82;;;1.48;;
65924;SDS011;66010;52.084;5.412;2023-09-19T14:11:05;5.97;;;1.50;;
65924;SDS011;66010;52.084;5.412;2023-09-19T14:13:32;4.57;;;1.10;;
65924;SDS011;66010;52.084;5.412;2023-09-19T14:16:07;5.93;;;1.27;;
65924;SDS011;66010;52.084;5.412;2023-09-19T14:18:35;4.65;;;1.30;;
65924;SDS011;66010;52.084;5.412;2023-09-19T14:21:03;6.32;;;1.23;;
65924;SDS011;66010;52.084;5.412;2023-09-19T14:23:34;5.38;;;1.13;;
65924;SDS011;66010;52.084;5.412;2023-09-19T14:26:01;5.18;;;1.40;;
65924;SDS011;66010;52.084;5.412;2023-09-19T14:28:28;4.75;;;1.30;;
65924;SDS011;66010;52.084;5.412;2023-09-19T14:30:56;4.47;;;1.42;;
65924;SDS011;66010;52.084;5.412;2023-09-19T14:33:23;5.32;;;1.20;;
65924;SDS011;66010;52.084;5.412;2023-09-19T14:35:49;4.93;;;1.08;;
65924;SDS011;66010;52.084;5.412;2023-09-19T14:38:16;5.40;;;1.20;;
65924;SDS011;66010;52.084;5.412;2023-09-19T14:40:43;5.60;;;1.40;;
65924;SDS011;66010;52.084;5.412;2023-09-19T14:43:10;5.88;;;1.40;;
65924;SDS011;66010;52.084;5.412;2023-09-19T14:45:37;4.70;;;1.30;;
65924;SDS011;66010;52.084;5.412;2023-09-19T14:50:32;6.45;;;1.30;;
65924;SDS011;66010;52.084;5.412;2023-09-19T14:55:28;6.95;;;1.80;;
65924;SDS011;66010;52.084;5.412;2023-09-19T14:57:56;6.13;;;1.45;;
65924;SDS011;66010;52.084;5.412;2023-09-19T15:00:25;6.13;;;1.58;;
65924;SDS011;66010;52.084;5.412;2023-09-19T15:02:51;4.97;;;1.50;;
65924;SDS011;66010;52.084;5.412;2023-09-19T15:05:19;5.50;;;1.83;;
65924;SDS011;66010;52.084;5.412;2023-09-19T15:07:46;6.38;;;1.65;;
65924;SDS011;66010;52.084;5.412;2023-09-19T15:10:13;8.32;;;2.03;;
65924;SDS011;66010;52.084;5.412;2023-09-19T15:12:46;7.15;;;1.65;;
65924;SDS011;66010;52.084;5.412;2023-09-19T15:15:39;6.45;;;1.80;;
65924;SDS011;66010;52.084;5.412;2023-09-19T15:18:14;6.00;;;1.73;;
65924;SDS011;66010;52.084;5.412;2023-09-19T15:20:48;5.90;;;1.58;;
65924;SDS011;66010;52.084;5.412;2023-09-19T15:23:15;6.18;;;1.40;;
65924;SDS011;66010;52.084;5.412;2023-09-19T15:25:48;5.18;;;1.80;;
65924;SDS011;66010;52.084;5.412;2023-09-19T15:28:16;5.35;;;1.80;;
65924;SDS011;66010;52.084;5.412;2023-09-19T15:30:49;7.68;;;1.60;;
65924;SDS011;66010;52.084;5.412;2023-09-19T15:33:29;6.63;;;1.70;;
65924;SDS011;66010;52.084;5.412;2023-09-19T15:36:00;7.63;;;1.88;;
65924;SDS011;66010;52.084;5.412;2023-09-19T15:38:28;5.30;;;1.85;;
65924;SDS011;66010;52.084;5.412;2023-09-19T15:44:12;8.57;;;1.70;;
65924;SDS011;66010;52.084;5.412;2023-09-19T15:46:47;6.60;;;1.52;;
65924;SDS011;66010;52.084;5.412;2023-09-19T15:49:16;7.28;;;1.67;;
65924;SDS011;66010;52.084;5.412;2023-09-19T15:51:44;7.35;;;1.52;;
65924;SDS011;66010;52.084;5.412;2023-09-19T15:54:15;6.30;;;1.88;;
65924;SDS011;66010;52.084;5.412;2023-09-19T15:56:45;7.25;;;1.95;;
65924;SDS011;66010;52.084;5.412;2023-09-19T16:03:06;7.57;;;1.90;;
65924;SDS011;66010;52.084;5.412;2023-09-19T16:05:36;8.50;;;1.80;;
65924;SDS011;66010;52.084;5.412;2023-09-19T16:08:04;5.78;;;1.90;;
65924;SDS011;66010;52.084;5.412;2023-09-19T16:10:35;6.50;;;1.73;;
65924;SDS011;66010;52.084;5.412;2023-09-19T16:13:03;7.05;;;1.65;;
65924;SDS011;66010;52.084;5.412;2023-09-19T16:15:30;5.88;;;1.70;;
65924;SDS011;66010;52.084;5.412;2023-09-19T16:17:57;6.93;;;1.80;;
65924;SDS011;66010;52.084;5.412;2023-09-19T16:20:24;6.40;;;1.65;;
65924;SDS011;66010;52.084;5.412;2023-09-19T16:22:51;5.65;;;1.70;;
65924;SDS011;66010;52.084;5.412;2023-09-19T16:25:19;6.72;;;1.90;;
65924;SDS011;66010;52.084;5.412;2023-09-19T16:27:47;5.38;;;1.75;;
65924;SDS011;66010;52.084;5.412;2023-09-19T16:30:25;7.60;;;1.83;;
65924;SDS011;66010;52.084;5.412;2023-09-19T16:32:52;4.22;;;1.52;;
65924;SDS011;66010;52.084;5.412;2023-09-19T16:35:19;7.47;;;1.70;;
65924;SDS011;66010;52.084;5.412;2023-09-19T16:37:45;6.10;;;1.55;;
65924;SDS011;66010;52.084;5.412;2023-09-19T16:40:13;5.90;;;1.50;;
65924;SDS011;66010;52.084;5.412;2023-09-19T16:42:42;6.93;;;1.60;;
65924;SDS011;66010;52.084;5.412;2023-09-19T16:45:09;7.78;;;1.73;;
65924;SDS011;66010;52.084;5.412;2023-09-19T16:47:37;7.07;;;1.70;;
65924;SDS011;66010;52.084;5.412;2023-09-19T16:50:04;5.05;;;1.70;;
65924;SDS011;66010;52.084;5.412;2023-09-19T16:52:33;9.15;;;1.92;;
65924;SDS011;66010;52.084;5.412;2023-09-19T16:55:00;6.65;;;1.95;;